sensor_id;sensor_type;location;lat;lon;timestamp;P1;durP1;ratioP1;P2;durP2;ratioP2
72117;SDS011;59992;47.490;8.736;2023-04-24T00:02:36;2.90;;;1.00;;
72117;SDS011;59992;47.490;8.736;2023-04-24T00:05:26;1.20;;;0.70;;
72117;SDS011;59992;47.490;8.736;2023-04-24T00:08:17;1.60;;;0.70;;
72117;SDS011;59992;47.490;8.736;2023-04-24T00:11:07;1.40;;;0.70;;
72117;SDS011;59992;47.490;8.736;2023-04-24T00:13:58;1.20;;;0.70;;
72117;SDS011;59992;47.490;8.736;2023-04-24T00:16:48;2.30;;;0.60;;
72117;SDS011;59992;47.490;8.736;2023-04-24T00:19:39;1.10;;;0.70;;
72117;SDS011;59992;47.490;8.736;2023-04-24T00:22:29;3.10;;;0.70;;
72117;SDS011;59992;47.490;8.736;2023-04-24T00:25:19;0.80;;;0.50;;
72117;SDS011;59992;47.490;8.736;2023-04-24T00:28:09;0.60;;;0.40;;
72117;SDS011;59992;47.490;8.736;2023-04-24T00:31:00;1.10;;;0.60;;
72117;SDS011;59992;47.490;8.736;2023-04-24T00:33:50;1.00;;;0.50;;
72117;SDS011;59992;47.490;8.736;2023-04-24T00:36:41;1.90;;;0.60;;
72117;SDS011;59992;47.490;8.736;2023-04-24T00:39:31;0.70;;;0.40;;
72117;SDS011;59992;47.490;8.736;2023-04-24T00:42:22;1.20;;;0.70;;
72117;SDS011;59992;47.490;8.736;2023-04-24T00:45:12;3.20;;;0.40;;
72117;SDS011;59992;47.490;8.736;2023-04-24T00:48:03;0.60;;;0.50;;
72117;SDS011;59992;47.490;8.736;2023-04-24T00:50:53;1.00;;;0.50;;
72117;SDS011;59992;47.490;8.736;2023-04-24T00:53:44;1.10;;;0.40;;
72117;SDS011;59992;47.490;8.736;2023-04-24T00:56:34;0.40;;;0.40;;
72117;SDS011;59992;47.490;8.736;2023-04-24T00:59:25;0.90;;;0.50;;
72117;SDS011;59992;47.490;8.736;2023-04-24T01:02:15;0.80;;;0.40;;
72117;SDS011;59992;47.490;8.736;2023-04-24T01:05:06;0.90;;;0.50;;
72117;SDS011;59992;47.490;8.736;2023-04-24T01:07:57;0.80;;;0.50;;
72117;SDS011;59992;47.490;8.736;2023-04-24T01:10:49;1.20;;;0.50;;
72117;SDS011;59992;47.490;8.736;2023-04-24T01:13:41;2.20;;;0.60;;
72117;SDS011;59992;47.490;8.736;2023-04-24T01:16:31;1.30;;;0.50;;
72117;SDS011;59992;47.490;8.736;2023-04-24T01:19:21;0.80;;;0.50;;
72117;SDS011;59992;47.490;8.736;2023-04-24T01:22:12;1.40;;;0.50;;
72117;SDS011;59992;47.490;8.736;2023-04-24T01:25:03;0.60;;;0.40;;
72117;SDS011;59992;47.490;8.736;2023-04-24T01:27:55;2.20;;;0.50;;
72117;SDS011;59992;47.490;8.736;2023-04-24T01:30:45;1.20;;;0.60;;
72117;SDS011;59992;47.490;8.736;2023-04-24T01:33:35;1.10;;;0.50;;
72117;SDS011;59992;47.490;8.736;2023-04-24T01:36:25;0.40;;;0.40;;
72117;SDS011;59992;47.490;8.736;2023-04-24T01:39:17;2.00;;;0.50;;
72117;SDS011;59992;47.490;8.736;2023-04-24T01:42:07;0.40;;;0.40;;
72117;SDS011;59992;47.490;8.736;2023-04-24T01:44:58;0.60;;;0.50;;
72117;SDS011;59992;47.490;8.736;2023-04-24T01:47:48;1.60;;;0.60;;
72117;SDS011;59992;47.490;8.736;2023-04-24T01:50:39;1.50;;;0.50;;
72117;SDS011;59992;47.490;8.736;2023-04-24T01:53:30;3.30;;;0.40;;
72117;SDS011;59992;47.490;8.736;2023-04-24T01:56:20;0.40;;;0.40;;
72117;SDS011;59992;47.490;8.736;2023-04-24T01:59:11;1.30;;;0.50;;
72117;SDS011;59992;47.490;8.736;2023-04-24T02:02:03;1.80;;;0.60;;
72117;SDS011;59992;47.490;8.736;2023-04-24T02:04:53;1.30;;;0.40;;
72117;SDS011;59992;47.490;8.736;2023-04-24T02:07:43;0.60;;;0.40;;
72117;SDS011;59992;47.490;8.736;2023-04-24T02:10:34;0.80;;;0.40;;
72117;SDS011;59992;47.490;8.736;2023-04-24T02:13:24;0.40;;;0.40;;
72117;SDS011;59992;47.490;8.736;2023-04-24T02:16:14;0.90;;;0.50;;
72117;SDS011;59992;47.490;8.736;2023-04-24T02:19:04;1.20;;;0.40;;
72117;SDS011;59992;47.490;8.736;2023-04-24T02:21:55;0.30;;;0.30;;
72117;SDS011;59992;47.490;8.736;2023-04-24T02:24:45;0.40;;;0.40;;
72117;SDS011;59992;47.490;8.736;2023-04-24T02:27:36;0.40;;;0.30;;
72117;SDS011;59992;47.490;8.736;2023-04-24T02:30:26;0.70;;;0.40;;
72117;SDS011;59992;47.490;8.736;2023-04-24T02:33:16;0.50;;;0.30;;
72117;SDS011;59992;47.490;8.736;2023-04-24T02:36:07;0.50;;;0.50;;
72117;SDS011;59992;47.490;8.736;2023-04-24T02:38:57;0.40;;;0.30;;
72117;SDS011;59992;47.490;8.736;2023-04-24T02:41:48;0.50;;;0.40;;
72117;SDS011;59992;47.490;8.736;2023-04-24T02:44:38;0.50;;;0.40;;
72117;SDS011;59992;47.490;8.736;2023-04-24T02:47:28;0.60;;;0.40;;
72117;SDS011;59992;47.490;8.736;2023-04-24T02:50:18;2.30;;;0.40;;
72117;SDS011;59992;47.490;8.736;2023-04-24T02:53:08;1.70;;;0.40;;
72117;SDS011;59992;47.490;8.736;2023-04-24T02:55:59;0.40;;;0.40;;
72117;SDS011;59992;47.490;8.736;2023-04-24T02:58:49;0.30;;;0.30;;
72117;SDS011;59992;47.490;8.736;2023-04-24T03:01:39;1.50;;;0.40;;
72117;SDS011;59992;47.490;8.736;2023-04-24T03:04:29;0.50;;;0.40;;
72117;SDS011;59992;47.490;8.736;2023-04-24T03:07:19;0.40;;;0.30;;
72117;SDS011;59992;47.490;8.736;2023-04-24T03:10:11;0.40;;;0.40;;
72117;SDS011;59992;47.490;8.736;2023-04-24T03:13:01;0.60;;;0.40;;
72117;SDS011;59992;47.490;8.736;2023-04-24T03:15:54;1.40;;;0.40;;
72117;SDS011;59992;47.490;8.736;2023-04-24T03:18:45;0.70;;;0.30;;
72117;SDS011;59992;47.490;8.736;2023-04-24T03:21:35;2.20;;;0.40;;
72117;SDS011;59992;47.490;8.736;2023-04-24T03:24:28;0.70;;;0.40;;
72117;SDS011;59992;47.490;8.736;2023-04-24T03:27:18;0.40;;;0.40;;
72117;SDS011;59992;47.490;8.736;2023-04-24T03:30:09;0.90;;;0.30;;
72117;SDS011;59992;47.490;8.736;2023-04-24T03:32:59;0.50;;;0.40;;
72117;SDS011;59992;47.490;8.736;2023-04-24T03:35:49;2.20;;;0.40;;
72117;SDS011;59992;47.490;8.736;2023-04-24T03:38:40;0.50;;;0.30;;
72117;SDS011;59992;47.490;8.736;2023-04-24T03:41:30;0.70;;;0.40;;
72117;SDS011;59992;47.490;8.736;2023-04-24T03:44:20;0.40;;;0.40;;
72117;SDS011;59992;47.490;8.736;2023-04-24T03:47:10;0.30;;;0.30;;
72117;SDS011;59992;47.490;8.736;2023-04-24T03:50:00;0.40;;;0.40;;
72117;SDS011;59992;47.490;8.736;2023-04-24T03:52:51;0.50;;;0.40;;
72117;SDS011;59992;47.490;8.736;2023-04-24T03:55:41;0.50;;;0.40;;
72117;SDS011;59992;47.490;8.736;2023-04-24T03:58:31;0.50;;;0.30;;
72117;SDS011;59992;47.490;8.736;2023-04-24T04:01:22;0.40;;;0.40;;
72117;SDS011;59992;47.490;8.736;2023-04-24T04:04:12;0.30;;;0.30;;
72117;SDS011;59992;47.490;8.736;2023-04-24T04:07:03;0.70;;;0.40;;
72117;SDS011;59992;47.490;8.736;2023-04-24T04:09:53;1.10;;;0.40;;
72117;SDS011;59992;47.490;8.736;2023-04-24T04:12:44;2.10;;;0.30;;
72117;SDS011;59992;47.490;8.736;2023-04-24T04:15:34;0.30;;;0.30;;
72117;SDS011;59992;47.490;8.736;2023-04-24T04:18:24;0.70;;;0.40;;
72117;SDS011;59992;47.490;8.736;2023-04-24T04:21:15;0.30;;;0.30;;
72117;SDS011;59992;47.490;8.736;2023-04-24T04:24:05;0.40;;;0.40;;
72117;SDS011;59992;47.490;8.736;2023-04-24T04:26:55;0.60;;;0.40;;
72117;SDS011;59992;47.490;8.736;2023-04-24T04:29:46;1.70;;;0.40;;
72117;SDS011;59992;47.490;8.736;2023-04-24T04:32:37;0.60;;;0.30;;
72117;SDS011;59992;47.490;8.736;2023-04-24T04:35:27;0.40;;;0.30;;
72117;SDS011;59992;47.490;8.736;2023-04-24T04:38:18;0.50;;;0.40;;
72117;SDS011;59992;47.490;8.736;2023-04-24T04:41:08;0.50;;;0.40;;
72117;SDS011;59992;47.490;8.736;2023-04-24T04:43:58;0.60;;;0.30;;
72117;SDS011;59992;47.490;8.736;2023-04-24T04:46:51;1.90;;;0.30;;
72117;SDS011;59992;47.490;8.736;2023-04-24T04:49:43;0.80;;;0.40;;
72117;SDS011;59992;47.490;8.736;2023-04-24T04:52:33;0.50;;;0.40;;
72117;SDS011;59992;47.490;8.736;2023-04-24T04:58:27;0.90;;;0.30;;
72117;SDS011;59992;47.490;8.736;2023-04-24T05:01:18;0.50;;;0.40;;
72117;SDS011;59992;47.490;8.736;2023-04-24T05:04:08;0.40;;;0.40;;
72117;SDS011;59992;47.490;8.736;2023-04-24T05:06:58;0.40;;;0.30;;
72117;SDS011;59992;47.490;8.736;2023-04-24T05:09:49;3.40;;;1.30;;
72117;SDS011;59992;47.490;8.736;2023-04-24T05:12:39;0.80;;;0.40;;
72117;SDS011;59992;47.490;8.736;2023-04-24T05:15:30;3.30;;;0.40;;
72117;SDS011;59992;47.490;8.736;2023-04-24T05:18:20;0.70;;;0.50;;
72117;SDS011;59992;47.490;8.736;2023-04-24T05:21:10;0.50;;;0.40;;
72117;SDS011;59992;47.490;8.736;2023-04-24T05:24:00;0.40;;;0.30;;
72117;SDS011;59992;47.490;8.736;2023-04-24T05:26:51;0.50;;;0.40;;
72117;SDS011;59992;47.490;8.736;2023-04-24T05:29:42;1.00;;;0.40;;
72117;SDS011;59992;47.490;8.736;2023-04-24T05:32:35;0.60;;;0.40;;
72117;SDS011;59992;47.490;8.736;2023-04-24T05:35:26;0.50;;;0.50;;
72117;SDS011;59992;47.490;8.736;2023-04-24T05:38:16;0.70;;;0.50;;
72117;SDS011;59992;47.490;8.736;2023-04-24T05:41:08;1.00;;;0.50;;
72117;SDS011;59992;47.490;8.736;2023-04-24T05:43:58;1.50;;;0.60;;
72117;SDS011;59992;47.490;8.736;2023-04-24T05:46:48;1.60;;;0.60;;
72117;SDS011;59992;47.490;8.736;2023-04-24T05:49:38;1.50;;;0.50;;
72117;SDS011;59992;47.490;8.736;2023-04-24T05:52:28;1.70;;;0.50;;
72117;SDS011;59992;47.490;8.736;2023-04-24T05:55:18;1.10;;;0.60;;
72117;SDS011;59992;47.490;8.736;2023-04-24T05:58:09;1.10;;;0.60;;
72117;SDS011;59992;47.490;8.736;2023-04-24T06:00:59;1.90;;;0.70;;
72117;SDS011;59992;47.490;8.736;2023-04-24T06:03:50;3.80;;;0.70;;
72117;SDS011;59992;47.490;8.736;2023-04-24T06:06:41;1.70;;;0.80;;
72117;SDS011;59992;47.490;8.736;2023-04-24T06:09:31;1.50;;;0.70;;
72117;SDS011;59992;47.490;8.736;2023-04-24T06:12:21;0.90;;;0.60;;
72117;SDS011;59992;47.490;8.736;2023-04-24T06:15:11;1.70;;;0.70;;
72117;SDS011;59992;47.490;8.736;2023-04-24T06:18:01;1.30;;;0.70;;
72117;SDS011;59992;47.490;8.736;2023-04-24T06:20:51;2.00;;;0.70;;
72117;SDS011;59992;47.490;8.736;2023-04-24T06:23:42;1.00;;;0.80;;
72117;SDS011;59992;47.490;8.736;2023-04-24T06:26:34;1.90;;;0.90;;
72117;SDS011;59992;47.490;8.736;2023-04-24T06:29:24;2.20;;;1.00;;
72117;SDS011;59992;47.490;8.736;2023-04-24T06:32:14;2.20;;;1.00;;
72117;SDS011;59992;47.490;8.736;2023-04-24T06:35:05;1.70;;;1.00;;
72117;SDS011;59992;47.490;8.736;2023-04-24T06:37:57;1.20;;;0.90;;
72117;SDS011;59992;47.490;8.736;2023-04-24T06:40:47;2.20;;;1.10;;
72117;SDS011;59992;47.490;8.736;2023-04-24T06:43:38;2.00;;;1.30;;
72117;SDS011;59992;47.490;8.736;2023-04-24T06:46:28;1.80;;;1.20;;
72117;SDS011;59992;47.490;8.736;2023-04-24T06:49:19;1.80;;;1.10;;
72117;SDS011;59992;47.490;8.736;2023-04-24T06:52:09;2.20;;;1.20;;
72117;SDS011;59992;47.490;8.736;2023-04-24T06:55:01;2.20;;;1.10;;
72117;SDS011;59992;47.490;8.736;2023-04-24T06:57:51;1.50;;;0.90;;
72117;SDS011;59992;47.490;8.736;2023-04-24T07:00:41;1.50;;;0.80;;
72117;SDS011;59992;47.490;8.736;2023-04-24T07:03:33;1.30;;;1.00;;
72117;SDS011;59992;47.490;8.736;2023-04-24T07:06:23;1.50;;;0.90;;
72117;SDS011;59992;47.490;8.736;2023-04-24T07:09:14;1.60;;;0.70;;
72117;SDS011;59992;47.490;8.736;2023-04-24T07:12:06;1.40;;;0.70;;
72117;SDS011;59992;47.490;8.736;2023-04-24T07:14:57;2.30;;;1.20;;
72117;SDS011;59992;47.490;8.736;2023-04-24T07:17:48;2.20;;;0.80;;
72117;SDS011;59992;47.490;8.736;2023-04-24T07:20:38;1.50;;;1.00;;
72117;SDS011;59992;47.490;8.736;2023-04-24T07:23:28;5.30;;;0.90;;
72117;SDS011;59992;47.490;8.736;2023-04-24T07:26:19;1.50;;;0.90;;
72117;SDS011;59992;47.490;8.736;2023-04-24T07:29:10;1.30;;;0.80;;
72117;SDS011;59992;47.490;8.736;2023-04-24T07:32:01;2.70;;;0.60;;
72117;SDS011;59992;47.490;8.736;2023-04-24T07:34:52;1.70;;;0.60;;
72117;SDS011;59992;47.490;8.736;2023-04-24T07:37:42;1.90;;;0.70;;
72117;SDS011;59992;47.490;8.736;2023-04-24T07:40:33;1.10;;;0.60;;
72117;SDS011;59992;47.490;8.736;2023-04-24T07:43:25;2.20;;;0.80;;
72117;SDS011;59992;47.490;8.736;2023-04-24T07:46:15;1.70;;;0.60;;
72117;SDS011;59992;47.490;8.736;2023-04-24T07:49:05;1.80;;;0.80;;
72117;SDS011;59992;47.490;8.736;2023-04-24T07:51:55;3.80;;;0.70;;
72117;SDS011;59992;47.490;8.736;2023-04-24T07:54:47;1.60;;;0.70;;
72117;SDS011;59992;47.490;8.736;2023-04-24T07:57:39;2.00;;;0.80;;
72117;SDS011;59992;47.490;8.736;2023-04-24T08:00:30;1.10;;;0.60;;
72117;SDS011;59992;47.490;8.736;2023-04-24T08:03:20;2.30;;;0.90;;
72117;SDS011;59992;47.490;8.736;2023-04-24T08:06:12;3.20;;;1.00;;
72117;SDS011;59992;47.490;8.736;2023-04-24T08:09:02;1.70;;;1.00;;
72117;SDS011;59992;47.490;8.736;2023-04-24T08:11:53;4.00;;;1.20;;
72117;SDS011;59992;47.490;8.736;2023-04-24T08:14:44;3.50;;;1.00;;
72117;SDS011;59992;47.490;8.736;2023-04-24T08:17:34;1.70;;;1.00;;
72117;SDS011;59992;47.490;8.736;2023-04-24T08:20:25;2.40;;;0.80;;
72117;SDS011;59992;47.490;8.736;2023-04-24T08:23:15;4.10;;;1.10;;
72117;SDS011;59992;47.490;8.736;2023-04-24T08:26:05;1.90;;;1.10;;
72117;SDS011;59992;47.490;8.736;2023-04-24T08:28:56;4.20;;;1.40;;
72117;SDS011;59992;47.490;8.736;2023-04-24T08:31:46;3.70;;;1.20;;
72117;SDS011;59992;47.490;8.736;2023-04-24T08:34:36;3.20;;;1.10;;
72117;SDS011;59992;47.490;8.736;2023-04-24T08:37:26;2.80;;;1.30;;
72117;SDS011;59992;47.490;8.736;2023-04-24T08:40:17;4.20;;;1.50;;
72117;SDS011;59992;47.490;8.736;2023-04-24T08:43:10;2.10;;;1.20;;
72117;SDS011;59992;47.490;8.736;2023-04-24T08:46:01;2.90;;;1.50;;
72117;SDS011;59992;47.490;8.736;2023-04-24T08:48:53;2.20;;;1.30;;
72117;SDS011;59992;47.490;8.736;2023-04-24T08:51:43;2.80;;;1.50;;
72117;SDS011;59992;47.490;8.736;2023-04-24T08:54:35;4.60;;;1.60;;
72117;SDS011;59992;47.490;8.736;2023-04-24T08:57:26;3.30;;;1.50;;
72117;SDS011;59992;47.490;8.736;2023-04-24T09:00:17;6.00;;;1.40;;
72117;SDS011;59992;47.490;8.736;2023-04-24T09:03:09;3.40;;;1.70;;
72117;SDS011;59992;47.490;8.736;2023-04-24T09:05:59;4.90;;;1.70;;
72117;SDS011;59992;47.490;8.736;2023-04-24T09:08:50;4.20;;;1.70;;
72117;SDS011;59992;47.490;8.736;2023-04-24T09:11:44;2.80;;;1.60;;
72117;SDS011;59992;47.490;8.736;2023-04-24T09:14:34;3.90;;;1.60;;
72117;SDS011;59992;47.490;8.736;2023-04-24T09:17:29;3.90;;;1.40;;
72117;SDS011;59992;47.490;8.736;2023-04-24T09:20:20;4.60;;;1.80;;
72117;SDS011;59992;47.490;8.736;2023-04-24T09:23:10;4.50;;;1.60;;
72117;SDS011;59992;47.490;8.736;2023-04-24T09:26:05;4.50;;;1.60;;
72117;SDS011;59992;47.490;8.736;2023-04-24T09:28:57;3.40;;;1.40;;
72117;SDS011;59992;47.490;8.736;2023-04-24T09:31:48;3.10;;;1.50;;
72117;SDS011;59992;47.490;8.736;2023-04-24T09:34:38;4.20;;;1.60;;
72117;SDS011;59992;47.490;8.736;2023-04-24T09:37:34;2.80;;;1.50;;
72117;SDS011;59992;47.490;8.736;2023-04-24T09:40:25;3.40;;;1.30;;
72117;SDS011;59992;47.490;8.736;2023-04-24T09:43:15;6.30;;;1.40;;
72117;SDS011;59992;47.490;8.736;2023-04-24T09:46:06;3.50;;;1.40;;
72117;SDS011;59992;47.490;8.736;2023-04-24T09:48:57;3.30;;;1.50;;
72117;SDS011;59992;47.490;8.736;2023-04-24T09:52:03;3.10;;;1.30;;
72117;SDS011;59992;47.490;8.736;2023-04-24T09:54:55;3.00;;;1.40;;
72117;SDS011;59992;47.490;8.736;2023-04-24T09:57:52;3.80;;;1.40;;
72117;SDS011;59992;47.490;8.736;2023-04-24T10:00:43;3.30;;;1.40;;
72117;SDS011;59992;47.490;8.736;2023-04-24T10:03:35;2.50;;;1.20;;
72117;SDS011;59992;47.490;8.736;2023-04-24T10:06:31;3.50;;;1.60;;
72117;SDS011;59992;47.490;8.736;2023-04-24T10:09:23;4.80;;;1.40;;
72117;SDS011;59992;47.490;8.736;2023-04-24T10:12:17;3.50;;;1.40;;
72117;SDS011;59992;47.490;8.736;2023-04-24T10:15:10;6.20;;;1.50;;
72117;SDS011;59992;47.490;8.736;2023-04-24T10:18:06;2.50;;;1.40;;
72117;SDS011;59992;47.490;8.736;2023-04-24T10:20:57;3.00;;;1.50;;
72117;SDS011;59992;47.490;8.736;2023-04-24T10:23:51;5.30;;;1.40;;
72117;SDS011;59992;47.490;8.736;2023-04-24T10:26:43;1.90;;;1.10;;
72117;SDS011;59992;47.490;8.736;2023-04-24T10:29:37;3.80;;;1.70;;
72117;SDS011;59992;47.490;8.736;2023-04-24T10:32:31;4.50;;;1.60;;
72117;SDS011;59992;47.490;8.736;2023-04-24T10:35:21;2.90;;;1.20;;
72117;SDS011;59992;47.490;8.736;2023-04-24T10:38:14;5.60;;;1.60;;
72117;SDS011;59992;47.490;8.736;2023-04-24T10:41:11;3.50;;;1.30;;
72117;SDS011;59992;47.490;8.736;2023-04-24T10:44:05;3.10;;;1.40;;
72117;SDS011;59992;47.490;8.736;2023-04-24T10:46:57;2.60;;;1.40;;
72117;SDS011;59992;47.490;8.736;2023-04-24T10:49:47;3.60;;;1.30;;
72117;SDS011;59992;47.490;8.736;2023-04-24T10:52:47;4.00;;;1.60;;
72117;SDS011;59992;47.490;8.736;2023-04-24T10:55:43;2.60;;;1.40;;
72117;SDS011;59992;47.490;8.736;2023-04-24T10:58:38;2.50;;;1.10;;
72117;SDS011;59992;47.490;8.736;2023-04-24T11:01:31;3.60;;;1.30;;
72117;SDS011;59992;47.490;8.736;2023-04-24T11:04:30;4.60;;;1.40;;
72117;SDS011;59992;47.490;8.736;2023-04-24T11:07:22;2.90;;;1.40;;
72117;SDS011;59992;47.490;8.736;2023-04-24T11:10:13;2.90;;;1.40;;
72117;SDS011;59992;47.490;8.736;2023-04-24T11:13:16;4.90;;;1.40;;
72117;SDS011;59992;47.490;8.736;2023-04-24T11:16:16;2.90;;;1.20;;
72117;SDS011;59992;47.490;8.736;2023-04-24T11:19:20;2.50;;;1.30;;
72117;SDS011;59992;47.490;8.736;2023-04-24T11:22:14;2.00;;;1.30;;
72117;SDS011;59992;47.490;8.736;2023-04-24T11:25:09;2.20;;;1.20;;
72117;SDS011;59992;47.490;8.736;2023-04-24T11:28:08;3.10;;;1.50;;
72117;SDS011;59992;47.490;8.736;2023-04-24T11:34:24;3.60;;;1.40;;
72117;SDS011;59992;47.490;8.736;2023-04-24T11:37:14;2.90;;;1.30;;
72117;SDS011;59992;47.490;8.736;2023-04-24T11:40:07;2.60;;;1.20;;
72117;SDS011;59992;47.490;8.736;2023-04-24T11:42:59;2.30;;;1.20;;
72117;SDS011;59992;47.490;8.736;2023-04-24T11:45:52;4.20;;;1.40;;
72117;SDS011;59992;47.490;8.736;2023-04-24T11:48:45;3.50;;;1.30;;
72117;SDS011;59992;47.490;8.736;2023-04-24T11:51:36;2.70;;;1.10;;
72117;SDS011;59992;47.490;8.736;2023-04-24T11:54:26;2.20;;;1.10;;
72117;SDS011;59992;47.490;8.736;2023-04-24T11:57:17;3.80;;;1.30;;
72117;SDS011;59992;47.490;8.736;2023-04-24T12:00:14;4.50;;;1.20;;
72117;SDS011;59992;47.490;8.736;2023-04-24T12:03:07;4.00;;;1.20;;
72117;SDS011;59992;47.490;8.736;2023-04-24T12:06:05;7.50;;;1.50;;
72117;SDS011;59992;47.490;8.736;2023-04-24T12:08:56;2.20;;;1.10;;
72117;SDS011;59992;47.490;8.736;2023-04-24T12:11:53;2.90;;;1.10;;
72117;SDS011;59992;47.490;8.736;2023-04-24T12:14:46;2.70;;;1.30;;
72117;SDS011;59992;47.490;8.736;2023-04-24T12:17:40;2.00;;;1.20;;
72117;SDS011;59992;47.490;8.736;2023-04-24T12:20:31;5.10;;;1.30;;
72117;SDS011;59992;47.490;8.736;2023-04-24T12:26:32;6.50;;;1.10;;
72117;SDS011;59992;47.490;8.736;2023-04-24T12:29:23;3.10;;;1.10;;
72117;SDS011;59992;47.490;8.736;2023-04-24T12:32:16;2.10;;;1.00;;
72117;SDS011;59992;47.490;8.736;2023-04-24T12:35:07;2.80;;;1.00;;
72117;SDS011;59992;47.490;8.736;2023-04-24T12:38:06;4.90;;;1.00;;
72117;SDS011;59992;47.490;8.736;2023-04-24T12:41:02;4.40;;;1.30;;
72117;SDS011;59992;47.490;8.736;2023-04-24T12:43:53;3.70;;;1.30;;
72117;SDS011;59992;47.490;8.736;2023-04-24T12:46:43;2.60;;;1.20;;
72117;SDS011;59992;47.490;8.736;2023-04-24T12:49:33;5.90;;;1.00;;
72117;SDS011;59992;47.490;8.736;2023-04-24T12:52:24;4.70;;;1.40;;
72117;SDS011;59992;47.490;8.736;2023-04-24T12:55:14;4.70;;;1.00;;
72117;SDS011;59992;47.490;8.736;2023-04-24T12:58:04;2.30;;;1.00;;
72117;SDS011;59992;47.490;8.736;2023-04-24T13:00:54;2.60;;;0.90;;
72117;SDS011;59992;47.490;8.736;2023-04-24T13:03:44;1.70;;;1.10;;
72117;SDS011;59992;47.490;8.736;2023-04-24T13:06:34;3.30;;;1.40;;
72117;SDS011;59992;47.490;8.736;2023-04-24T13:09:24;3.60;;;1.10;;
72117;SDS011;59992;47.490;8.736;2023-04-24T13:12:15;2.80;;;1.30;;
72117;SDS011;59992;47.490;8.736;2023-04-24T13:15:07;1.60;;;1.20;;
72117;SDS011;59992;47.490;8.736;2023-04-24T13:17:58;4.30;;;1.10;;
72117;SDS011;59992;47.490;8.736;2023-04-24T13:20:48;3.00;;;1.00;;
72117;SDS011;59992;47.490;8.736;2023-04-24T13:23:38;2.10;;;1.00;;
72117;SDS011;59992;47.490;8.736;2023-04-24T13:26:29;2.50;;;1.20;;
72117;SDS011;59992;47.490;8.736;2023-04-24T13:29:19;2.90;;;1.10;;
72117;SDS011;59992;47.490;8.736;2023-04-24T13:32:09;3.30;;;1.10;;
72117;SDS011;59992;47.490;8.736;2023-04-24T13:34:59;2.90;;;1.30;;
72117;SDS011;59992;47.490;8.736;2023-04-24T13:37:50;2.50;;;1.30;;
72117;SDS011;59992;47.490;8.736;2023-04-24T13:40:40;1.80;;;1.30;;
72117;SDS011;59992;47.490;8.736;2023-04-24T13:43:31;2.70;;;1.20;;
72117;SDS011;59992;47.490;8.736;2023-04-24T13:46:21;4.90;;;1.10;;
72117;SDS011;59992;47.490;8.736;2023-04-24T13:49:11;2.50;;;1.10;;
72117;SDS011;59992;47.490;8.736;2023-04-24T13:52:02;2.30;;;1.10;;
72117;SDS011;59992;47.490;8.736;2023-04-24T13:54:52;5.20;;;1.30;;
72117;SDS011;59992;47.490;8.736;2023-04-24T13:57:43;4.90;;;1.40;;
72117;SDS011;59992;47.490;8.736;2023-04-24T14:00:33;2.40;;;1.30;;
72117;SDS011;59992;47.490;8.736;2023-04-24T14:03:23;3.70;;;1.60;;
72117;SDS011;59992;47.490;8.736;2023-04-24T14:06:13;2.60;;;1.00;;
72117;SDS011;59992;47.490;8.736;2023-04-24T14:09:04;2.80;;;1.20;;
72117;SDS011;59992;47.490;8.736;2023-04-24T14:11:54;2.70;;;1.50;;
72117;SDS011;59992;47.490;8.736;2023-04-24T14:14:44;3.50;;;1.40;;
72117;SDS011;59992;47.490;8.736;2023-04-24T14:17:35;3.80;;;1.20;;
72117;SDS011;59992;47.490;8.736;2023-04-24T14:20:25;1.70;;;1.10;;
72117;SDS011;59992;47.490;8.736;2023-04-24T14:23:16;2.60;;;1.30;;
72117;SDS011;59992;47.490;8.736;2023-04-24T14:26:07;5.40;;;1.40;;
72117;SDS011;59992;47.490;8.736;2023-04-24T14:28:57;1.70;;;1.10;;
72117;SDS011;59992;47.490;8.736;2023-04-24T14:31:48;2.50;;;1.40;;
72117;SDS011;59992;47.490;8.736;2023-04-24T14:34:38;3.60;;;1.40;;
72117;SDS011;59992;47.490;8.736;2023-04-24T14:37:29;2.50;;;1.30;;
72117;SDS011;59992;47.490;8.736;2023-04-24T14:40:19;3.70;;;1.20;;
72117;SDS011;59992;47.490;8.736;2023-04-24T14:43:09;3.20;;;1.50;;
72117;SDS011;59992;47.490;8.736;2023-04-24T14:46:00;4.20;;;1.40;;
72117;SDS011;59992;47.490;8.736;2023-04-24T14:48:50;3.20;;;1.30;;
72117;SDS011;59992;47.490;8.736;2023-04-24T14:51:40;2.70;;;1.20;;
72117;SDS011;59992;47.490;8.736;2023-04-24T14:54:30;2.20;;;1.40;;
72117;SDS011;59992;47.490;8.736;2023-04-24T14:57:20;2.90;;;1.10;;
72117;SDS011;59992;47.490;8.736;2023-04-24T15:00:12;3.20;;;1.30;;
72117;SDS011;59992;47.490;8.736;2023-04-24T15:03:04;1.80;;;1.10;;
72117;SDS011;59992;47.490;8.736;2023-04-24T15:05:54;3.10;;;1.00;;
72117;SDS011;59992;47.490;8.736;2023-04-24T15:08:44;4.30;;;1.30;;
72117;SDS011;59992;47.490;8.736;2023-04-24T15:11:35;3.40;;;1.40;;
72117;SDS011;59992;47.490;8.736;2023-04-24T15:14:25;2.70;;;1.50;;
72117;SDS011;59992;47.490;8.736;2023-04-24T15:17:16;2.30;;;1.20;;
72117;SDS011;59992;47.490;8.736;2023-04-24T15:20:07;2.70;;;1.40;;
72117;SDS011;59992;47.490;8.736;2023-04-24T15:22:58;1.90;;;1.10;;
72117;SDS011;59992;47.490;8.736;2023-04-24T15:25:49;1.90;;;1.20;;
72117;SDS011;59992;47.490;8.736;2023-04-24T15:28:39;5.20;;;1.30;;
72117;SDS011;59992;47.490;8.736;2023-04-24T15:31:30;2.60;;;1.10;;
72117;SDS011;59992;47.490;8.736;2023-04-24T15:34:20;1.40;;;1.00;;
72117;SDS011;59992;47.490;8.736;2023-04-24T15:37:10;2.40;;;1.30;;
72117;SDS011;59992;47.490;8.736;2023-04-24T15:40:01;2.50;;;1.20;;
72117;SDS011;59992;47.490;8.736;2023-04-24T15:42:54;2.80;;;1.30;;
72117;SDS011;59992;47.490;8.736;2023-04-24T15:45:44;2.60;;;1.40;;
72117;SDS011;59992;47.490;8.736;2023-04-24T15:48:35;2.00;;;1.20;;
72117;SDS011;59992;47.490;8.736;2023-04-24T15:51:28;4.20;;;1.30;;
72117;SDS011;59992;47.490;8.736;2023-04-24T15:54:19;3.00;;;1.30;;
72117;SDS011;59992;47.490;8.736;2023-04-24T15:57:09;3.00;;;1.40;;
72117;SDS011;59992;47.490;8.736;2023-04-24T16:00:00;2.40;;;1.30;;
72117;SDS011;59992;47.490;8.736;2023-04-24T16:02:53;3.70;;;1.10;;
72117;SDS011;59992;47.490;8.736;2023-04-24T16:05:43;1.70;;;1.30;;
72117;SDS011;59992;47.490;8.736;2023-04-24T16:08:34;2.80;;;1.40;;
72117;SDS011;59992;47.490;8.736;2023-04-24T16:11:24;3.70;;;1.30;;
72117;SDS011;59992;47.490;8.736;2023-04-24T16:14:14;3.90;;;1.70;;
72117;SDS011;59992;47.490;8.736;2023-04-24T16:17:04;2.90;;;1.50;;
72117;SDS011;59992;47.490;8.736;2023-04-24T16:19:55;3.70;;;1.40;;
72117;SDS011;59992;47.490;8.736;2023-04-24T16:22:45;7.00;;;1.40;;
72117;SDS011;59992;47.490;8.736;2023-04-24T16:25:36;2.70;;;1.20;;
72117;SDS011;59992;47.490;8.736;2023-04-24T16:28:26;2.40;;;1.30;;
72117;SDS011;59992;47.490;8.736;2023-04-24T16:31:18;2.70;;;1.40;;
72117;SDS011;59992;47.490;8.736;2023-04-24T16:34:08;3.80;;;1.60;;
72117;SDS011;59992;47.490;8.736;2023-04-24T16:36:58;2.80;;;1.60;;
72117;SDS011;59992;47.490;8.736;2023-04-24T16:39:49;3.10;;;1.70;;
72117;SDS011;59992;47.490;8.736;2023-04-24T16:42:41;4.20;;;1.60;;
72117;SDS011;59992;47.490;8.736;2023-04-24T16:45:31;2.50;;;1.50;;
72117;SDS011;59992;47.490;8.736;2023-04-24T16:48:22;4.20;;;1.80;;
72117;SDS011;59992;47.490;8.736;2023-04-24T16:51:12;4.40;;;1.60;;
72117;SDS011;59992;47.490;8.736;2023-04-24T16:54:03;3.20;;;1.80;;
72117;SDS011;59992;47.490;8.736;2023-04-24T16:56:54;4.20;;;1.80;;
72117;SDS011;59992;47.490;8.736;2023-04-24T16:59:44;5.20;;;2.50;;
72117;SDS011;59992;47.490;8.736;2023-04-24T17:02:35;5.30;;;1.50;;
72117;SDS011;59992;47.490;8.736;2023-04-24T17:05:26;2.80;;;1.60;;
72117;SDS011;59992;47.490;8.736;2023-04-24T17:08:16;3.80;;;1.40;;
72117;SDS011;59992;47.490;8.736;2023-04-24T17:11:09;3.60;;;1.70;;
72117;SDS011;59992;47.490;8.736;2023-04-24T17:14:00;3.70;;;2.40;;
72117;SDS011;59992;47.490;8.736;2023-04-24T17:16:52;2.50;;;1.60;;
72117;SDS011;59992;47.490;8.736;2023-04-24T17:19:43;3.20;;;1.60;;
72117;SDS011;59992;47.490;8.736;2023-04-24T17:22:33;5.00;;;1.70;;